Time;durP1;ratioP1;P1;durP2;ratioP2;P2;SDS_P1;SDS_P2;PMS_P1;PMS_P2;Temp;Humidity;BMP_temperature;BMP_pressure;BME280_temperature;BME280_humidity;BME280_pressure;Samples;Min_cycle;Max_cycle;Signal;HPM_P1;HPM_P2
2023/01/10 00:00:21;;;;;;;14.27;3.83;;;5.90;99.90;;;;;;5036177;28;20045;-45
2023/01/10 00:02:46;;;;;;;20.48;4.30;;;5.90;99.90;;;;;;5018139;28;20036;-48
2023/01/10 00:05:12;;;;;;;19.20;3.75;;;6.00;99.90;;;;;;5035854;28;20265;-46
2023/01/10 00:07:38;;;;;;;21.25;3.47;;;6.50;99.90;;;;;;5034996;28;20101;-46
2023/01/10 00:10:04;;;;;;;22.33;5.28;;;6.70;99.90;;;;;;5036301;28;20083;-47
2023/01/10 00:15:14;;;;;;;18.80;4.80;;;6.50;99.90;;;;;;5036048;28;20510;-46
2023/01/10 00:17:39;;;;;;;17.48;4.07;;;6.70;99.90;;;;;;5035083;28;20041;-46
2023/01/10 00:20:06;;;;;;;20.08;4.45;;;6.50;99.90;;;;;;5029687;28;20046;-48
2023/01/10 00:22:31;;;;;;;15.85;4.40;;;6.00;99.90;;;;;;5030244;28;20084;-48
2023/01/10 00:24:57;;;;;;;14.55;3.80;;;6.70;99.90;;;;;;5032794;28;20061;-48
2023/01/10 00:27:25;;;;;;;16.52;4.65;;;6.30;99.90;;;;;;5032343;28;20049;-46
2023/01/10 00:29:51;;;;;;;17.25;4.30;;;6.30;99.90;;;;;;5032521;28;20033;-46
2023/01/10 00:32:18;;;;;;;17.08;4.47;;;6.20;99.90;;;;;;5025818;28;20038;-46
2023/01/10 00:34:44;;;;;;;18.23;5.07;;;6.60;99.90;;;;;;5031365;28;20068;-47
2023/01/10 00:37:10;;;;;;;17.20;4.25;;;6.40;99.90;;;;;;5032129;28;20042;-50
2023/01/10 00:39:36;;;;;;;19.88;5.47;;;6.40;99.90;;;;;;5014749;28;20052;-47
2023/01/10 00:44:45;;;;;;;8.97;3.40;;;6.10;99.90;;;;;;5032073;28;20246;-48
2023/01/10 00:47:12;;;;;;;19.55;3.90;;;6.40;99.90;;;;;;5031396;28;20388;-47
2023/01/10 00:49:38;;;;;;;19.88;4.93;;;6.80;99.90;;;;;;5032598;28;20092;-46
2023/01/10 00:52:07;;;;;;;15.13;4.28;;;6.20;99.90;;;;;;5032224;28;20029;-50
2023/01/10 00:54:33;;;;;;;19.05;6.22;;;6.20;99.90;;;;;;5032402;28;20041;-48
2023/01/10 00:56:58;;;;;;;21.13;4.50;;;6.20;99.90;;;;;;5031742;28;20116;-47
2023/01/10 00:59:24;;;;;;;13.20;3.85;;;6.10;99.90;;;;;;5031853;28;20038;-47
2023/01/10 01:01:51;;;;;;;19.13;4.25;;;6.30;99.90;;;;;;5031865;28;20041;-48
2023/01/10 01:04:19;;;;;;;14.40;4.20;;;6.80;99.90;;;;;;5032026;28;20073;-47
2023/01/10 01:06:46;;;;;;;19.23;4.07;;;6.70;99.90;;;;;;5031731;28;20090;-48
2023/01/10 01:09:13;;;;;;;18.30;3.35;;;6.40;99.90;;;;;;5031511;28;20029;-47
2023/01/10 01:11:39;;;;;;;18.02;3.88;;;7.20;99.90;;;;;;5031870;28;20037;-46
2023/01/10 01:14:05;;;;;;;15.93;3.47;;;6.70;99.90;;;;;;5032042;28;20029;-45
2023/01/10 01:16:31;;;;;;;26.17;5.18;;;7.20;99.90;;;;;;5031465;28;20120;-46
2023/01/10 01:18:57;;;;;;;13.68;3.42;;;7.30;99.90;;;;;;5031318;28;20053;-46
2023/01/10 01:21:27;;;;;;;14.85;3.25;;;6.90;99.90;;;;;;5031626;28;20087;-47
2023/01/10 01:23:55;;;;;;;9.10;2.97;;;6.60;99.90;;;;;;5031580;28;20091;-46
2023/01/10 01:26:25;;;;;;;11.40;2.75;;;6.80;99.90;;;;;;5031583;28;20064;-46
2023/01/10 01:28:51;;;;;;;7.88;2.00;;;6.80;99.90;;;;;;5012821;28;20048;-47
2023/01/10 01:31:16;;;;;;;14.98;3.22;;;6.50;99.90;;;;;;5031776;28;20466;-48
2023/01/10 01:33:42;;;;;;;12.32;2.13;;;5.90;99.90;;;;;;5031264;28;20289;-48
2023/01/10 01:36:11;;;;;;;9.38;2.42;;;5.80;99.90;;;;;;5031728;28;20033;-47
2023/01/10 01:38:41;;;;;;;8.48;1.92;;;6.20;99.90;;;;;;5030979;28;20033;-45
2023/01/10 01:44:06;;;;;;;12.93;3.00;;;6.40;99.90;;;;;;5031201;28;20124;-45
2023/01/10 01:46:33;;;;;;;10.23;2.83;;;;;;;;;;5031287;28;20047;-47
2023/01/10 01:48:59;;;;;;;8.35;3.03;;;;;;;;;;5030541;28;20060;-46
2023/01/10 01:51:28;;;;;;;11.73;1.98;;;6.50;99.90;;;;;;5031287;28;20037;-46
2023/01/10 01:54:13;;;;;;;11.40;2.47;;;7.20;99.90;;;;;;5031038;28;20039;-50
2023/01/10 01:56:46;;;;;;;9.67;2.63;;;6.30;99.90;;;;;;5031098;28;20037;-47
2023/01/10 01:59:19;;;;;;;11.50;2.65;;;6.10;99.90;;;;;;5030521;28;20025;-46
2023/01/10 02:01:49;;;;;;;11.73;2.75;;;6.10;99.90;;;;;;5030973;28;20037;-48
2023/01/10 02:04:20;;;;;;;13.13;2.85;;;6.20;99.90;;;;;;5030776;28;20037;-48
2023/01/10 02:06:50;;;;;;;15.13;3.13;;;6.50;99.90;;;;;;5030958;28;20453;-48
2023/01/10 02:09:15;;;;;;;9.98;3.15;;;6.00;99.90;;;;;;5030572;28;20052;-48
2023/01/10 02:11:41;;;;;;;13.75;4.20;;;6.30;1.00;;;;;;5030831;28;20033;-48
2023/01/10 02:14:10;;;;;;;21.40;4.72;;;6.00;1.00;;;;;;5030798;28;20030;-47
2023/01/10 02:16:35;;;;;;;19.77;4.13;;;6.40;1.00;;;;;;5028808;28;20060;-48
2023/01/10 02:19:03;;;;;;;21.10;5.25;;;6.10;1.00;;;;;;5030293;28;20041;-48
2023/01/10 02:22:00;;;;;;;15.57;3.63;;;6.50;1.00;;;;;;5008425;28;20053;-48
2023/01/10 02:24:57;;;;;;;10.27;3.15;;;6.40;1.00;;;;;;5025924;28;20410;-49
2023/01/10 02:27:36;;;;;;;11.27;3.50;;;6.20;1.00;;;;;;5030314;28;20053;-49
2023/01/10 02:30:28;;;;;;;16.40;3.70;;;6.60;1.00;;;;;;5030525;28;20094;-48
2023/01/10 02:32:59;;;;;;;9.27;2.58;;;6.30;1.00;;;;;;5030358;28;20356;-51
2023/01/10 02:35:41;;;;;;;12.85;2.67;;;;;;;;;;5030088;28;20041;-47
2023/01/10 02:38:28;;;;;;;14.43;2.78;;;5.60;1.00;;;;;;5025197;28;20139;-49
2023/01/10 02:41:02;;;;;;;9.13;2.50;;;5.90;1.00;;;;;;5030546;28;20049;-50
2023/01/10 02:43:38;;;;;;;15.88;4.03;;;6.20;1.00;;;;;;5030282;28;20048;-54
2023/01/10 02:46:15;;;;;;;19.00;3.97;;;6.30;1.00;;;;;;5025313;28;20062;-54
2023/01/10 02:48:41;;;;;;;13.80;3.70;;;6.30;1.00;;;;;;5028138;28;20041;-50
2023/01/10 02:51:28;;;;;;;15.45;3.45;;;6.10;1.00;;;;;;5023503;28;20033;-51
2023/01/10 02:54:00;;;;;;;11.73;3.10;;;5.90;1.00;;;;;;5030389;28;20030;-50
2023/01/10 02:56:53;;;;;;;17.38;3.90;;;6.30;1.00;;;;;;5030520;28;20049;-55
2023/01/10 02:59:51;;;;;;;12.25;3.95;;;5.90;1.00;;;;;;5012264;28;20061;-55
2023/01/10 03:02:34;;;;;;;17.98;4.82;;;6.20;1.00;;;;;;5010100;28;20562;-53
2023/01/10 03:05:17;;;;;;;14.75;4.25;;;5.70;1.00;;;;;;5014431;28;20468;-53
2023/01/10 03:08:00;;;;;;;26.77;5.82;;;5.60;9.80;;;;;;5032008;28;20048;-48
2023/01/10 03:10:42;;;;;;;20.20;5.40;;;5.50;9.20;;;;;;5035251;28;20045;-52
2023/01/10 03:13:33;;;;;;;25.48;5.60;;;5.40;24.40;;;;;;5024736;28;20049;-53
2023/01/10 03:16:04;;;;;;;19.88;5.55;;;5.90;34.30;;;;;;5028159;28;20061;-48
2023/01/10 03:18:34;;;;;;;24.50;6.07;;;6.10;44.90;;;;;;5031809;28;20042;-50
2023/01/10 03:21:04;;;;;;;25.40;6.18;;;6.20;46.50;;;;;;5036940;28;20044;-49
2023/01/10 03:23:34;;;;;;;21.95;6.60;;;6.10;57.50;;;;;;5037272;28;20052;-48
2023/01/10 03:26:04;;;;;;;22.92;5.55;;;5.90;70.40;;;;;;5033225;28;20613;-48
2023/01/10 03:28:47;;;;;;;27.70;5.82;;;5.90;77.70;;;;;;5022327;28;20038;-48
2023/01/10 03:31:29;;;;;;;31.92;6.72;;;5.90;76.10;;;;;;5038359;28;20040;-51
2023/01/10 03:33:55;;;;;;;24.58;6.88;;;5.50;79.50;;;;;;5037613;28;20033;-51
2023/01/10 03:36:42;;;;;;;23.10;6.75;;;6.40;91.20;;;;;;5035856;28;20155;-52
2023/01/10 03:39:14;;;;;;;23.52;5.68;;;6.50;93.30;;;;;;5032704;28;20044;-49
2023/01/10 03:42:01;;;;;;;25.25;5.60;;;6.30;91.30;;;;;;5031861;28;20046;-52
2023/01/10 03:45:02;;;;;;;19.95;5.47;;;6.10;93.30;;;;;;5037436;28;20045;-52
2023/01/10 03:47:28;;;;;;;21.42;5.22;;;6.30;98.60;;;;;;5038190;28;20385;-53
2023/01/10 03:49:59;;;;;;;25.58;7.15;;;6.20;98.70;;;;;;5034235;28;20029;-49
2023/01/10 03:52:26;;;;;;;24.83;6.35;;;6.60;99.40;;;;;;5037069;28;20033;-50
2023/01/10 03:54:52;;;;;;;26.83;6.47;;;5.80;98.60;;;;;;5033210;28;20072;-53
2023/01/10 03:57:21;;;;;;;20.92;6.18;;;6.20;99.90;;;;;;5035578;28;20049;-52
2023/01/10 03:59:52;;;;;;;21.92;4.68;;;5.90;99.90;;;;;;5032298;28;20083;-49
2023/01/10 04:02:18;;;;;;;25.88;5.50;;;6.40;99.90;;;;;;5032970;28;20045;-50
2023/01/10 04:04:44;;;;;;;24.15;5.85;;;5.90;99.90;;;;;;5032917;28;20042;-51
2023/01/10 04:07:09;;;;;;;29.45;6.35;;;6.20;99.90;;;;;;5032474;28;20048;-49
2023/01/10 04:09:35;;;;;;;24.92;7.22;;;5.90;99.90;;;;;;5027119;28;20029;-48
2023/01/10 04:12:01;;;;;;;32.17;7.57;;;6.20;99.90;;;;;;5015348;28;20037;-49
2023/01/10 04:14:27;;;;;;;31.80;7.07;;;6.50;99.90;;;;;;5032856;28;20116;-53
2023/01/10 04:16:52;;;;;;;25.60;6.10;;;6.00;99.90;;;;;;5032164;28;20065;-54
2023/01/10 04:19:18;;;;;;;26.35;7.50;;;6.10;99.90;;;;;;5032961;28;20515;-50
2023/01/10 04:21:44;;;;;;;21.23;6.28;;;6.40;99.90;;;;;;5032638;28;20045;-51
2023/01/10 04:24:09;;;;;;;12.90;2.90;;;6.20;99.90;;;;;;5015339;28;20037;-50
2023/01/10 04:26:35;;;;;;;16.83;3.97;;;6.60;98.40;;;;;;5032588;28;20065;-50
2023/01/10 04:29:01;;;;;;;22.25;4.35;;;6.00;98.20;;;;;;5032161;28;20500;-49
2023/01/10 04:31:26;;;;;;;21.48;4.43;;;6.20;91.60;;;;;;5032278;28;20048;-51
2023/01/10 04:33:52;;;;;;;22.25;5.65;;;5.80;92.20;;;;;;5031362;28;20113;-51
2023/01/10 04:36:18;;;;;;;24.15;5.93;;;6.40;93.00;;;;;;5032782;28;20030;-53
2023/01/10 04:38:43;;;;;;;23.10;5.72;;;6.60;93.80;;;;;;5031796;28;20557;-49
2023/01/10 04:41:09;;;;;;;23.48;5.75;;;6.40;94.10;;;;;;5032630;28;20037;-48
2023/01/10 04:43:35;;;;;;;23.42;5.75;;;;;;;;;;5032188;28;20172;-49
2023/01/10 04:46:01;;;;;;;31.35;6.97;;;6.70;94.90;;;;;;5014789;28;20455;-48
2023/01/10 04:48:26;;;;;;;17.88;5.07;;;6.90;95.80;;;;;;5013753;28;20050;-51
2023/01/10 04:50:53;;;;;;;27.27;6.30;;;6.60;96.10;;;;;;5032398;28;20026;-51
2023/01/10 04:53:19;;;;;;;19.45;5.82;;;6.80;97.90;;;;;;5032177;28;20534;-53
2023/01/10 04:55:46;;;;;;;30.95;6.60;;;6.30;98.00;;;;;;5032133;28;20064;-53
2023/01/10 04:58:12;;;;;;;18.73;5.93;;;6.20;99.30;;;;;;5031612;28;20048;-51
2023/01/10 05:00:38;;;;;;;17.38;5.75;;;6.60;98.90;;;;;;5020752;28;20423;-50
2023/01/10 05:03:04;;;;;;;25.67;5.93;;;6.60;99.60;;;;;;5032295;28;20377;-51
2023/01/10 05:05:36;;;;;;;25.38;6.85;;;6.40;99.70;;;;;;5031964;28;20065;-54
2023/01/10 05:08:02;;;;;;;22.17;4.20;;;7.00;99.90;;;;;;5030523;28;20040;-51
2023/01/10 05:10:27;;;;;;;24.08;5.85;;;6.70;99.90;;;;;;5038921;28;20475;-49
2023/01/10 05:12:53;;;;;;;17.77;5.75;;;6.00;99.90;;;;;;5026090;28;20033;-51
2023/01/10 05:15:22;;;;;;;19.67;4.53;;;6.70;99.90;;;;;;5040334;28;20495;-54
2023/01/10 05:17:56;;;;;;;17.92;3.65;;;6.20;99.90;;;;;;5014784;28;20053;-48
2023/01/10 05:20:25;;;;;;;12.25;3.33;;;;;;;;;;5039771;28;20045;-52
2023/01/10 05:22:50;;;;;;;11.05;3.03;;;6.40;98.20;;;;;;5042378;28;20119;-53
2023/01/10 05:25:16;;;;;;;22.63;2.80;;;6.30;99.90;;;;;;5045698;28;20073;-55
2023/01/10 05:27:42;;;;;;;14.30;3.40;;;6.20;99.90;;;;;;5046910;28;20171;-54
2023/01/10 05:30:11;;;;;;;9.93;2.50;;;6.40;99.90;;;;;;5029521;28;20033;-56
2023/01/10 05:32:38;;;;;;;8.38;2.55;;;6.20;99.90;;;;;;5036688;28;20034;-50
2023/01/10 05:35:04;;;;;;;7.47;2.60;;;6.00;99.90;;;;;;5038794;28;20041;-55
2023/01/10 05:37:30;;;;;;;16.40;3.10;;;6.40;99.90;;;;;;5039742;28;20635;-52
2023/01/10 05:39:55;;;;;;;14.70;3.38;;;6.10;99.90;;;;;;5042953;28;20041;-53
2023/01/10 05:42:21;;;;;;;18.70;4.68;;;6.00;99.90;;;;;;5041890;28;20083;-53
2023/01/10 05:44:46;;;;;;;16.73;4.70;;;6.70;99.90;;;;;;5042510;28;20037;-54
2023/01/10 05:47:12;;;;;;;19.98;4.93;;;6.30;99.90;;;;;;5042835;28;20029;-53
2023/01/10 05:49:38;;;;;;;14.57;4.15;;;5.70;99.90;;;;;;5035950;28;20140;-53
2023/01/10 05:52:03;;;;;;;21.63;4.10;;;6.20;99.90;;;;;;5031212;28;20083;-53
2023/01/10 05:54:30;;;;;;;27.05;4.85;;;6.30;99.90;;;;;;5030916;28;20041;-54
2023/01/10 05:56:56;;;;;;;24.27;5.38;;;6.50;99.90;;;;;;5030344;28;20124;-56
2023/01/10 05:59:22;;;;;;;23.85;5.82;;;5.80;99.90;;;;;;5036571;28;20084;-55
2023/01/10 06:01:47;;;;;;;23.05;4.72;;;5.90;99.90;;;;;;5044619;28;20132;-53
2023/01/10 06:04:13;;;;;;;21.23;5.15;;;6.00;99.90;;;;;;5013076;28;20415;-52
2023/01/10 06:06:39;;;;;;;18.73;5.00;;;6.00;99.90;;;;;;5030977;28;20135;-53
2023/01/10 06:09:05;;;;;;;24.55;6.10;;;5.90;99.90;;;;;;5012419;28;20042;-54
2023/01/10 06:11:35;;;;;;;21.33;5.55;;;5.50;99.90;;;;;;5030525;28;20045;-54
2023/01/10 06:14:01;;;;;;;19.00;4.97;;;5.30;99.90;;;;;;5030703;28;20056;-54
2023/01/10 06:16:26;;;;;;;21.27;4.85;;;5.40;99.90;;;;;;5019992;28;20049;-51
2023/01/10 06:18:52;;;;;;;16.33;4.65;;;5.90;99.90;;;;;;5012483;28;20075;-52
2023/01/10 06:21:18;;;;;;;20.42;5.13;;;5.60;99.90;;;;;;5007065;28;20045;-52
2023/01/10 06:23:43;;;;;;;24.77;7.00;;;5.40;99.90;;;;;;5030300;28;20048;-54
2023/01/10 06:26:09;;;;;;;25.45;5.50;;;5.70;99.90;;;;;;5030241;28;20442;-50
2023/01/10 06:28:35;;;;;;;22.10;5.50;;;5.90;99.90;;;;;;5029903;28;20037;-51
2023/01/10 06:31:01;;;;;;;21.73;5.90;;;5.70;99.90;;;;;;5030488;28;20036;-53
2023/01/10 06:33:26;;;;;;;22.92;5.75;;;5.10;99.90;;;;;;5026679;28;20120;-53
2023/01/10 06:35:52;;;;;;;31.35;6.55;;;5.80;99.90;;;;;;5022505;28;20117;-53
2023/01/10 06:38:17;;;;;;;23.08;6.53;;;5.20;99.90;;;;;;5029660;28;20042;-55
2023/01/10 06:40:43;;;;;;;29.88;7.45;;;5.10;99.90;;;;;;5028978;28;20553;-52
2023/01/10 06:43:09;;;;;;;32.00;7.65;;;5.50;99.90;;;;;;5030093;28;20037;-54
2023/01/10 06:45:34;;;;;;;24.40;7.82;;;5.90;99.90;;;;;;5030294;28;20094;-51
2023/01/10 06:48:00;;;;;;;33.33;6.70;;;5.90;99.90;;;;;;5011962;28;20034;-52
2023/01/10 06:50:26;;;;;;;31.63;7.85;;;5.70;99.90;;;;;;5029955;28;20075;-52
2023/01/10 06:53:05;;;;;;;31.73;6.15;;;6.30;99.90;;;;;;5025732;28;20048;-54
2023/01/10 06:55:31;;;;;;;25.10;7.72;;;6.10;99.90;;;;;;5029827;28;20064;-52
2023/01/10 06:58:02;;;;;;;29.42;7.78;;;6.30;99.90;;;;;;5029499;28;20048;-51
2023/01/10 07:00:29;;;;;;;27.58;8.20;;;5.80;99.90;;;;;;5029795;28;20037;-55
2023/01/10 07:02:59;;;;;;;32.40;8.05;;;6.50;99.90;;;;;;5030034;28;20067;-51
2023/01/10 07:05:25;;;;;;;29.48;7.70;;;6.50;99.90;;;;;;5029605;28;20352;-54
2023/01/10 07:07:51;;;;;;;30.65;8.15;;;6.20;99.90;;;;;;5011328;28;20046;-51
2023/01/10 07:10:17;;;;;;;24.42;6.60;;;6.80;99.90;;;;;;5029985;28;20033;-54
2023/01/10 07:12:45;;;;;;;34.15;7.95;;;5.70;99.90;;;;;;5029478;28;20044;-53
2023/01/10 07:15:11;;;;;;;25.75;7.65;;;5.90;99.90;;;;;;5029918;28;20045;-54
2023/01/10 07:17:37;;;;;;;34.83;8.75;;;6.00;99.90;;;;;;5029088;28;20041;-49
2023/01/10 07:20:02;;;;;;;35.78;7.93;;;6.60;99.90;;;;;;5029544;28;20069;-53
2023/01/10 07:22:31;;;;;;;30.75;7.90;;;6.10;99.90;;;;;;5030225;28;20057;-53
2023/01/10 07:24:56;;;;;;;29.08;7.55;;;6.10;99.90;;;;;;5026076;28;20403;-52
2023/01/10 07:27:22;;;;;;;32.13;7.43;;;6.50;99.90;;;;;;5025074;28;20037;-53
2023/01/10 07:29:48;;;;;;;29.95;7.65;;;;;;;;;;5011759;28;20103;-52
2023/01/10 07:32:14;;;;;;;30.63;7.90;;;;;;;;;;5014344;28;20037;-50
2023/01/10 07:34:40;;;;;;;27.58;8.65;;;6.10;99.90;;;;;;5033171;28;20491;-52
2023/01/10 07:37:06;;;;;;;35.55;7.88;;;;;;;;;;5032283;28;20087;-57
2023/01/10 07:39:31;;;;;;;36.67;9.38;;;6.30;99.90;;;;;;5019245;28;20038;-53
2023/01/10 07:41:58;;;;;;;29.83;8.10;;;6.80;99.90;;;;;;5030937;28;20103;-54
2023/01/10 07:44:26;;;;;;;21.00;7.57;;;7.20;99.90;;;;;;5013987;28;20041;-50
2023/01/10 07:46:52;;;;;;;24.05;7.90;;;7.10;99.90;;;;;;5031692;28;20033;-53
2023/01/10 07:49:18;;;;;;;31.92;7.72;;;6.20;99.90;;;;;;5031526;28;20045;-51
2023/01/10 07:51:43;;;;;;;30.27;8.65;;;7.00;99.90;;;;;;5031192;28;20468;-51
2023/01/10 07:54:09;;;;;;;32.03;7.90;;;6.20;99.90;;;;;;5027592;28;20108;-51
2023/01/10 07:56:37;;;;;;;19.02;6.00;;;6.10;99.90;;;;;;5033000;28;20030;-51
2023/01/10 07:59:03;;;;;;;31.58;7.72;;;6.10;99.90;;;;;;5032720;28;20570;-51
2023/01/10 08:01:29;;;;;;;27.65;7.60;;;5.90;99.90;;;;;;5032882;28;20120;-51
2023/01/10 08:03:57;;;;;;;31.63;8.43;;;6.60;99.90;;;;;;5032631;28;20091;-50
2023/01/10 08:06:22;;;;;;;27.38;6.95;;;6.20;99.90;;;;;;5033391;28;20383;-52
2023/01/10 08:08:48;;;;;;;27.42;8.15;;;5.40;99.90;;;;;;5032136;28;20045;-53
2023/01/10 08:11:13;;;;;;;22.80;5.82;;;5.90;99.90;;;;;;5033013;28;20033;-51
2023/01/10 08:13:39;;;;;;;24.23;6.70;;;5.60;99.90;;;;;;5033092;28;20038;-54
2023/01/10 08:16:06;;;;;;;27.83;10.65;;;5.60;99.90;;;;;;5033099;28;20037;-50
2023/01/10 08:18:32;;;;;;;20.25;5.85;;;5.90;99.90;;;;;;5032140;28;20045;-52
2023/01/10 08:20:58;;;;;;;28.63;8.05;;;5.60;99.90;;;;;;5032759;28;20037;-50
2023/01/10 08:23:23;;;;;;;27.17;7.75;;;5.40;99.90;;;;;;5033069;28;20372;-50
2023/01/10 08:25:50;;;;;;;24.20;6.78;;;5.70;99.90;;;;;;5014842;28;20380;-50
2023/01/10 08:28:16;;;;;;;30.58;7.80;;;5.90;99.90;;;;;;5014349;28;20243;-54
2023/01/10 08:30:42;;;;;;;26.00;8.40;;;5.50;99.90;;;;;;5032564;28;20030;-51
2023/01/10 08:33:08;;;;;;;25.98;8.23;;;;;;;;;;5032217;28;20033;-50
2023/01/10 08:35:41;;;;;;;23.77;7.72;;;5.50;99.90;;;;;;5032701;28;20128;-51
2023/01/10 08:38:09;;;;;;;25.48;6.65;;;5.10;99.90;;;;;;5032260;28;20042;-51
2023/01/10 08:40:37;;;;;;;23.65;7.18;;;5.70;99.90;;;;;;5032485;28;20391;-47
2023/01/10 08:43:05;;;;;;;25.45;8.30;;;4.80;99.90;;;;;;5031393;28;20033;-47
2023/01/10 08:45:31;;;;;;;24.30;7.20;;;6.10;97.70;;;;;;5032147;28;20407;-47
2023/01/10 08:47:57;;;;;;;24.67;7.03;;;5.80;79.90;;;;;;5031881;28;20447;-47
2023/01/10 08:50:24;;;;;;;27.10;8.52;;;5.90;68.20;;;;;;5014420;28;20068;-47
2023/01/10 08:52:50;;;;;;;20.10;6.55;;;6.00;77.10;;;;;;5032391;28;20038;-47
2023/01/10 08:55:17;;;;;;;28.15;6.95;;;5.90;11.00;;;;;;5032162;28;20061;-47
2023/01/10 08:57:42;;;;;;;30.17;8.25;;;5.70;31.10;;;;;;5013853;28;20043;-48
2023/01/10 09:00:10;;;;;;;21.10;6.70;;;5.50;30.60;;;;;;5023710;28;20038;-47
2023/01/10 09:02:37;;;;;;;24.88;7.13;;;5.80;18.50;;;;;;5023924;28;20098;-49
2023/01/10 09:05:03;;;;;;;20.98;6.38;;;6.30;19.40;;;;;;5032056;28;20052;-50
2023/01/10 09:07:29;;;;;;;28.67;8.40;;;5.50;41.90;;;;;;5031209;28;20395;-46
2023/01/10 09:09:54;;;;;;;22.70;7.32;;;5.80;43.80;;;;;;5031895;28;20156;-47
2023/01/10 09:15:05;;;;;;;28.30;7.53;;;5.70;18.40;;;;;;5032179;28;20042;-51
2023/01/10 09:17:31;;;;;;;22.85;6.65;;;6.20;10.10;;;;;;5031067;28;20116;-51
2023/01/10 09:19:56;;;;;;;26.20;5.88;;;6.30;13.50;;;;;;5031905;28;20180;-52
2023/01/10 09:22:22;;;;;;;21.75;6.93;;;5.70;17.40;;;;;;5031728;28;20040;-47
2023/01/10 09:24:48;;;;;;;23.92;6.80;;;6.40;15.70;;;;;;5028652;28;20112;-49
2023/01/10 09:27:14;;;;;;;23.15;7.15;;;6.10;16.00;;;;;;5025361;28;20029;-48
2023/01/10 09:29:39;;;;;;;18.52;5.63;;;6.30;17.20;;;;;;5031366;28;20421;-50
2023/01/10 09:32:05;;;;;;;22.60;7.75;;;6.30;18.20;;;;;;5026728;28;20475;-48
2023/01/10 09:34:30;;;;;;;27.55;6.55;;;6.70;1.00;;;;;;5028262;28;20036;-50
2023/01/10 09:36:56;;;;;;;22.42;7.00;;;5.90;1.00;;;;;;4996878;28;20042;-48
2023/01/10 09:39:21;;;;;;;19.00;6.22;;;6.70;1.00;;;;;;5031341;28;20037;-51
2023/01/10 09:42:14;;;;;;;28.13;6.38;;;6.20;1.00;;;;;;5031298;28;20135;-47
2023/01/10 09:44:41;;;;;;;21.90;6.03;;;;;;;;;;5013475;28;20495;-47
2023/01/10 09:47:15;;;;;;;19.10;6.43;;;6.00;1.00;;;;;;5030395;28;20515;-50
2023/01/10 09:49:57;;;;;;;23.33;6.00;;;6.40;1.00;;;;;;5031169;28;20038;-53
2023/01/10 09:52:31;;;;;;;22.75;5.47;;;6.40;1.00;;;;;;5027062;28;20045;-49
2023/01/10 09:55:25;;;;;;;24.83;6.78;;;6.00;1.00;;;;;;5030939;28;20037;-47
2023/01/10 09:57:57;;;;;;;19.17;6.43;;;6.90;1.00;;;;;;5022199;28;20158;-46
2023/01/10 10:00:32;;;;;;;24.40;6.18;;;7.60;1.00;;;;;;5030799;28;20038;-48
2023/01/10 10:02:58;;;;;;;21.55;6.70;;;6.50;1.00;;;;;;5031146;28;20049;-48
2023/01/10 10:05:27;;;;;;;24.90;6.18;;;6.60;1.00;;;;;;5030915;28;20047;-46
2023/01/10 10:08:01;;;;;;;27.45;7.65;;;7.10;1.00;;;;;;5021878;28;20033;-46
2023/01/10 10:10:33;;;;;;;;;;;6.80;1.00;;;;;;5013599;28;20056;-46
2023/01/10 10:13:07;;;;;;;22.05;6.25;;;6.50;1.00;;;;;;5030408;28;19917;-46
2023/01/10 10:15:36;;;;;;;23.83;6.53;;;6.30;1.00;;;;;;5030910;28;20038;-47
2023/01/10 10:18:04;;;;;;;27.75;7.05;;;6.90;1.00;;;;;;5029960;28;20484;-46
2023/01/10 10:20:46;;;;;;;26.33;7.57;;;7.30;1.00;;;;;;5030653;28;20104;-46
2023/01/10 10:23:35;;;;;;;25.92;6.32;;;7.70;1.00;;;;;;5030751;28;20057;-46
2023/01/10 10:26:33;;;;;;;22.83;6.75;;;7.70;1.00;;;;;;5016988;28;20052;-47
2023/01/10 10:29:17;;;;;;;22.50;6.30;;;6.70;1.00;;;;;;5028951;28;20033;-45
2023/01/10 10:32:12;;;;;;;33.13;6.50;;;6.60;1.00;;;;;;5030129;28;20044;-47
2023/01/10 10:34:56;;;;;;;26.90;6.40;;;7.00;1.00;;;;;;5030373;28;20120;-47
2023/01/10 10:37:31;;;;;;;24.43;6.27;;;6.80;1.00;;;;;;5030006;28;20033;-48
2023/01/10 10:40:05;;;;;;;30.25;7.03;;;6.90;1.00;;;;;;5030104;28;20065;-47
2023/01/10 10:42:37;;;;;;;27.67;5.47;;;6.90;1.00;;;;;;5030362;28;20037;-50
2023/01/10 10:45:16;;;;;;;24.23;5.93;;;6.40;1.00;;;;;;5030186;28;20030;-46
2023/01/10 10:47:49;;;;;;;23.67;6.38;;;6.60;1.00;;;;;;5029371;28;20033;-46
2023/01/10 10:50:25;;;;;;;29.55;6.68;;;7.60;1.00;;;;;;5030032;28;20048;-48
2023/01/10 10:52:50;;;;;;;24.15;7.10;;;6.90;1.00;;;;;;5028689;28;20049;-50
2023/01/10 10:55:21;;;;;;;20.42;6.07;;;6.40;1.00;;;;;;5022120;28;20042;-47
2023/01/10 10:57:48;;;;;;;27.10;7.05;;;7.10;1.00;;;;;;5029547;28;20042;-46
2023/01/10 11:00:17;;;;;;;22.80;6.25;;;6.60;1.00;;;;;;5027729;28;20049;-47
2023/01/10 11:02:48;;;;;;;27.73;6.80;;;6.80;1.00;;;;;;5029855;28;20116;-47
2023/01/10 11:05:28;;;;;;;30.23;6.70;;;6.50;1.00;;;;;;5021221;28;20408;-47
2023/01/10 11:08:00;;;;;;;31.30;7.78;;;7.20;1.00;;;;;;5028750;28;20041;-46
2023/01/10 11:10:37;;;;;;;23.23;6.20;;;7.00;1.00;;;;;;5030109;28;20038;-46
2023/01/10 11:13:24;;;;;;;19.35;5.55;;;6.90;1.00;;;;;;5023163;28;20475;-47
2023/01/10 11:15:50;;;;;;;23.20;7.25;;;6.50;1.00;;;;;;4998793;28;20103;-45
2023/01/10 11:18:24;;;;;;;25.13;6.03;;;6.50;1.00;;;;;;5029366;28;20594;-48
2023/01/10 11:21:03;;;;;;;24.38;6.28;;;6.90;1.00;;;;;;5029617;28;20037;-50
2023/01/10 11:23:39;;;;;;;29.55;6.30;;;6.90;1.00;;;;;;5011741;28;20063;-47
2023/01/10 11:26:40;;;;;;;29.77;7.97;;;6.60;1.00;;;;;;5036851;28;20038;-46
2023/01/10 11:29:35;;;;;;;26.15;7.25;;;7.00;1.00;;;;;;5018596;28;20053;-47
2023/01/10 11:32:17;;;;;;;27.30;7.00;;;6.50;1.00;;;;;;5035950;28;20037;-48
2023/01/10 11:34:48;;;;;;;34.58;7.03;;;;;;;;;;5032482;28;20046;-46
2023/01/10 11:37:26;;;;;;;27.83;8.13;;;6.70;1.00;;;;;;5040062;28;20032;-45
2023/01/10 11:40:13;;;;;;;25.98;7.07;;;7.10;1.00;;;;;;5031637;28;20037;-47
2023/01/10 11:42:42;;;;;;;25.38;7.05;;;6.70;1.00;;;;;;5033762;28;20045;-48
2023/01/10 11:45:30;;;;;;;26.13;7.00;;;6.70;1.00;;;;;;5013525;28;20128;-47
2023/01/10 11:48:08;;;;;;;24.95;7.03;;;6.50;1.00;;;;;;5007386;28;20163;-46
2023/01/10 11:50:49;;;;;;;21.02;6.97;;;;;;;;;;5032333;28;20037;-47
2023/01/10 11:53:30;;;;;;;31.63;8.23;;;7.20;1.00;;;;;;5034931;28;20443;-50
2023/01/10 11:55:55;;;;;;;25.17;6.78;;;6.40;1.00;;;;;;5039275;28;20372;-46
2023/01/10 11:58:21;;;;;;;34.63;8.65;;;6.30;1.00;;;;;;5033307;28;20041;-47
2023/01/10 12:00:52;;;;;;;22.40;5.88;;;6.90;1.00;;;;;;5037320;28;20116;-48
2023/01/10 12:03:21;;;;;;;33.00;9.27;;;;;;;;;;5032731;28;20041;-46
2023/01/10 12:05:53;;;;;;;28.48;7.22;;;6.70;1.00;;;;;;5017655;28;20103;-47
2023/01/10 12:08:31;;;;;;;29.15;7.82;;;6.50;99.90;;;;;;5011826;28;20072;-47
2023/01/10 12:11:00;;;;;;;26.65;7.47;;;6.20;1.00;;;;;;5021225;28;20065;-48
2023/01/10 12:13:29;;;;;;;25.10;5.93;;;6.40;99.90;;;;;;5029398;28;20046;-48
2023/01/10 12:16:22;;;;;;;28.40;9.20;;;6.80;1.00;;;;;;5011500;28;20033;-47
2023/01/10 12:18:50;;;;;;;24.75;6.35;;;6.60;1.00;;;;;;5022289;28;20045;-46
2023/01/10 12:21:27;;;;;;;27.17;6.57;;;6.90;1.00;;;;;;5015137;28;20075;-49
2023/01/10 12:23:57;;;;;;;26.25;8.20;;;6.60;1.00;;;;;;5033068;28;20120;-46
2023/01/10 12:26:24;;;;;;;25.90;8.00;;;6.50;1.00;;;;;;5014974;28;20091;-46
2023/01/10 12:28:56;;;;;;;30.58;8.82;;;6.20;1.00;;;;;;5032099;28;20045;-47
2023/01/10 12:31:22;;;;;;;23.60;8.35;;;7.80;1.00;;;;;;5015284;28;20099;-47
2023/01/10 12:34:12;;;;;;;26.25;8.27;;;6.70;1.00;;;;;;5029575;28;20034;-47
2023/01/10 12:36:37;;;;;;;23.98;9.48;;;6.80;1.00;;;;;;5030735;28;20095;-48
2023/01/10 12:39:15;;;;;;;29.65;9.65;;;7.00;1.00;;;;;;5032188;28;20041;-48
2023/01/10 12:44:41;;;;;;;30.75;9.23;;;6.50;1.00;;;;;;5029123;28;20412;-45
2023/01/10 12:47:17;;;;;;;26.48;9.60;;;6.40;99.90;;;;;;5025693;28;20041;-47
2023/01/10 12:50:02;;;;;;;25.75;9.93;;;6.30;99.90;;;;;;5032311;28;20761;-46
2023/01/10 12:52:27;;;;;;;35.42;10.73;;;6.40;1.00;;;;;;5029026;28;20057;-45
2023/01/10 12:54:53;;;;;;;26.35;9.98;;;6.20;99.90;;;;;;5032330;28;20042;-48
2023/01/10 12:57:30;;;;;;;33.83;9.38;;;6.40;99.90;;;;;;5031580;28;20033;-47
2023/01/10 12:59:59;;;;;;;28.52;10.50;;;6.60;99.90;;;;;;5031999;28;20403;-47
2023/01/10 13:02:30;;;;;;;31.40;9.45;;;6.70;99.90;;;;;;5011070;28;20076;-44
2023/01/10 13:04:59;;;;;;;27.67;10.00;;;6.10;99.90;;;;;;5025568;28;20048;-48
2023/01/10 13:07:31;;;;;;;44.47;11.20;;;6.30;1.00;;;;;;5031396;28;20051;-48
2023/01/10 13:09:59;;;;;;;31.02;10.65;;;6.30;1.00;;;;;;5024482;28;20029;-48
2023/01/10 13:12:37;;;;;;;27.35;10.80;;;6.50;99.90;;;;;;5014008;28;20056;-46
2023/01/10 13:15:33;;;;;;;25.27;9.10;;;6.30;99.90;;;;;;5014258;28;20049;-45
2023/01/10 13:18:14;;;;;;;26.30;9.45;;;6.50;99.90;;;;;;5031394;28;20044;-46
2023/01/10 13:20:41;;;;;;;27.15;8.82;;;6.50;1.00;;;;;;5031502;28;20041;-45
2023/01/10 13:23:28;;;;;;;27.48;8.90;;;;;;;;;;5014154;28;20515;-47
2023/01/10 13:26:01;;;;;;;24.60;8.23;;;5.70;99.90;;;;;;5031919;28;20033;-49